Terminal Aerodrome Forecast
Issued by NWS

Home | Current Version | Previous Version | Graphics & Text | Print | Product List | Glossary On
Versions: 1 2 3 4 5 6 7 8 9 10 11 12 13 14 15
337
FTUS43 KFGF 200520
TAFBJI
TAF
KBJI 200520Z 2006/2106 19006KT P6SM SCT200
     FM200800 22007KT P6SM FEW200
     FM201000 25007KT P6SM FEW200
     FM201200 30007KT P6SM SCT200=

USA.gov is the U.S. government's official web portal to all federal, state and local government web resources and services.